createdAt,value
2023-01-11T00:04:40.553Z,6.57
2023-01-11T00:09:42.084Z,5.38
2023-01-11T00:14:43.588Z,5.63
2023-01-11T00:19:45.090Z,6.10
2023-01-11T00:24:46.566Z,4.30
2023-01-11T00:29:48.049Z,4.47
2023-01-11T00:34:49.559Z,4.47
2023-01-11T00:39:51.542Z,4.30
2023-01-11T00:45:11.279Z,4.68
2023-01-11T00:50:12.748Z,4.25
2023-01-11T00:55:14.232Z,4.50
2023-01-11T01:00:15.887Z,4.60
2023-01-11T01:05:17.650Z,5.80
2023-01-11T01:10:19.347Z,4.10
2023-01-11T01:15:20.845Z,4.85
2023-01-11T01:20:23.141Z,4.70
2023-01-11T01:25:24.620Z,4.38
2023-01-11T01:30:26.082Z,4.47
2023-01-11T01:35:27.548Z,4.60
2023-01-11T01:40:29.025Z,3.88
2023-01-11T01:45:30.493Z,3.70
2023-01-11T01:50:34.607Z,3.88
2023-01-11T01:55:38.059Z,3.75
2023-01-11T02:00:40.664Z,4.43
2023-01-11T02:05:42.146Z,4.18
2023-01-11T02:10:43.597Z,3.97
2023-01-11T02:15:45.073Z,3.58
2023-01-11T02:21:04.368Z,4.57
2023-01-11T02:26:30.349Z,3.53
2023-01-11T02:31:41.827Z,4.03
2023-01-11T02:37:10.923Z,3.33
2023-01-11T02:42:55.386Z,3.10
2023-01-11T02:48:00.400Z,2.63
2023-01-11T02:53:08.726Z,2.95
2023-01-11T02:58:11.312Z,3.05
2023-01-11T03:03:16.389Z,3.03
2023-01-11T03:08:35.920Z,2.33
2023-01-11T03:13:54.912Z,1.98
2023-01-11T03:19:34.446Z,2.15
2023-01-11T03:25:01.745Z,2.63
2023-01-11T03:30:11.599Z,2.00
2023-01-11T03:35:15.710Z,2.40
2023-01-11T03:40:25.680Z,2.00
2023-01-11T03:45:27.192Z,1.90
2023-01-11T03:50:28.654Z,1.80
2023-01-11T03:55:30.507Z,2.00
2023-01-11T04:00:32.029Z,1.63
2023-01-11T04:05:34.101Z,2.05
2023-01-11T04:10:35.569Z,1.95
2023-01-11T04:15:37.087Z,1.55
2023-01-11T04:20:40.111Z,1.52
2023-01-11T04:25:41.591Z,2.13
2023-01-11T04:30:43.064Z,1.70
2023-01-11T04:35:44.878Z,2.53
2023-01-11T04:40:47.667Z,2.03
2023-01-11T04:45:49.578Z,2.78
2023-01-11T04:50:51.137Z,1.80
2023-01-11T04:55:53.530Z,2.35
2023-01-11T05:00:55.004Z,2.10
2023-01-11T05:06:00.246Z,2.58
2023-01-11T05:11:03.755Z,3.13
2023-01-11T05:16:05.471Z,3.05
2023-01-11T05:21:07.371Z,3.20
2023-01-11T05:26:10.343Z,3.63
2023-01-11T05:31:11.872Z,3.85
2023-01-11T05:36:16.711Z,4.38
2023-01-11T05:41:19.258Z,3.88
2023-01-11T05:46:21.757Z,3.92
2023-01-11T05:51:23.223Z,4.30
2023-01-11T05:56:24.789Z,4.13
2023-01-11T06:01:26.335Z,4.63
2023-01-11T06:06:27.863Z,3.78
2023-01-11T06:11:29.354Z,4.60
2023-01-11T06:16:30.871Z,4.70
2023-01-11T06:21:32.358Z,4.43
2023-01-11T06:26:33.816Z,3.78
2023-01-11T06:31:35.315Z,3.28
2023-01-11T06:36:36.783Z,5.15
2023-01-11T06:41:38.233Z,5.22
2023-01-11T06:46:39.777Z,12.10
2023-01-11T06:51:41.257Z,12.52
2023-01-11T06:56:42.758Z,8.27
2023-01-11T07:01:44.303Z,10.48
2023-01-11T07:06:45.801Z,12.15
2023-01-11T07:11:47.278Z,7.93
2023-01-11T07:16:48.746Z,5.18
2023-01-11T07:21:50.223Z,3.22
2023-01-11T07:26:52.564Z,2.78
2023-01-11T07:31:54.047Z,4.22
2023-01-11T07:36:55.510Z,3.58
2023-01-11T07:42:15.419Z,3.75
2023-01-11T07:47:16.880Z,3.92
2023-01-11T07:52:18.781Z,3.72
2023-01-11T07:57:20.297Z,3.15
2023-01-11T08:02:21.793Z,2.95
2023-01-11T08:07:23.273Z,2.75
2023-01-11T08:12:43.341Z,3.25
2023-01-11T08:17:44.862Z,3.38
2023-01-11T08:22:46.490Z,2.95
2023-01-11T08:27:47.965Z,3.15
2023-01-11T08:32:49.491Z,2.50
2023-01-11T08:37:50.977Z,3.42
2023-01-11T08:42:58.747Z,2.75
2023-01-11T08:48:00.228Z,3.00
2023-01-11T08:53:01.727Z,3.90
2023-01-11T08:58:03.200Z,4.45
2023-01-11T09:03:04.702Z,3.88
2023-01-11T09:08:06.453Z,2.50
2023-01-11T09:13:07.906Z,4.13
2023-01-11T09:18:09.432Z,3.63
2023-01-11T09:23:10.964Z,2.92
2023-01-11T09:28:12.421Z,2.70
2023-01-11T09:33:13.897Z,3.90
2023-01-11T09:38:15.388Z,3.00
2023-01-11T09:43:16.859Z,3.03
2023-01-11T09:48:28.748Z,2.95
2023-01-11T09:53:34.921Z,3.53
2023-01-11T09:58:50.964Z,2.97
2023-01-11T10:04:33.320Z,2.88
2023-01-11T10:18:32.895Z,3.05
2023-01-11T10:20:40.895Z,3.22
2023-01-11T10:25:50.184Z,4.05
2023-01-11T10:30:57.243Z,2.88
2023-01-11T10:36:28.656Z,3.25
2023-01-11T10:41:52.213Z,2.88
2023-01-11T10:46:53.766Z,2.95
2023-01-11T10:51:57.635Z,3.75
2023-01-11T10:57:26.757Z,2.28
2023-01-11T11:02:46.623Z,3.00
2023-01-11T11:08:06.397Z,3.30
2023-01-11T11:13:23.799Z,3.90
2023-01-11T11:18:25.320Z,3.55
2023-01-11T11:23:28.593Z,3.80
2023-01-11T11:28:31.377Z,3.92
2023-01-11T11:33:39.883Z,2.92
2023-01-11T11:38:42.442Z,4.40
2023-01-11T11:43:45.010Z,4.05
2023-01-11T11:49:13.091Z,4.18
2023-01-11T11:54:34.120Z,3.17
2023-01-11T11:59:35.589Z,2.88
2023-01-11T12:04:49.000Z,3.42
2023-01-11T12:09:57.203Z,3.55
2023-01-11T12:15:15.114Z,3.50
2023-01-11T12:20:19.216Z,3.42
2023-01-11T12:25:25.233Z,2.92
2023-01-11T12:30:44.882Z,2.67
2023-01-11T12:35:56.247Z,4.20
2023-01-11T12:41:09.934Z,2.55
2023-01-11T12:46:39.501Z,3.33
2023-01-11T12:52:06.947Z,3.33
2023-01-11T12:57:18.945Z,3.35
2023-01-11T13:02:28.626Z,3.63
2023-01-11T13:07:45.462Z,3.22
2023-01-11T13:12:54.331Z,3.90
2023-01-11T13:18:18.593Z,3.50
2023-01-11T13:23:34.347Z,3.58
2023-01-11T13:28:38.794Z,3.50
2023-01-11T13:33:42.633Z,2.80
2023-01-11T13:39:10.216Z,2.70
2023-01-11T13:44:20.939Z,3.55
2023-01-11T13:49:41.269Z,2.95
2023-01-11T13:55:27.627Z,2.80
2023-01-11T14:00:42.066Z,3.80
2023-01-11T14:06:18.739Z,4.07
2023-01-11T14:11:44.701Z,3.20
2023-01-11T14:17:04.047Z,3.17
2023-01-11T14:22:43.100Z,3.13
2023-01-11T14:28:07.923Z,3.58
2023-01-11T14:33:34.110Z,3.60
2023-01-11T14:39:01.769Z,3.35
2023-01-11T14:44:20.597Z,3.05
2023-01-11T14:49:33.399Z,4.35
2023-01-11T14:54:39.419Z,3.88
2023-01-11T14:59:40.954Z,3.08
2023-01-11T15:04:57.290Z,3.67
2023-01-11T15:10:04.168Z,4.68
2023-01-11T15:15:07.106Z,3.40
2023-01-11T15:20:12.904Z,3.45
2023-01-11T15:25:24.903Z,4.28
2023-01-11T15:30:29.253Z,5.00
2023-01-11T15:35:32.493Z,3.00
2023-01-11T15:40:36.809Z,4.43
2023-01-11T15:46:31.005Z,3.90
2023-01-11T15:51:58.140Z,3.70
2023-01-11T15:57:11.705Z,3.70
2023-01-11T16:02:13.036Z,3.42
2023-01-11T16:07:26.510Z,4.60
2023-01-11T16:12:52.578Z,3.70
2023-01-11T16:17:54.086Z,4.28
2023-01-11T16:23:00.097Z,3.80
2023-01-11T16:28:01.633Z,2.72
2023-01-11T16:33:26.308Z,3.90
2023-01-11T16:38:27.763Z,4.85
2023-01-11T16:43:29.796Z,5.20
2023-01-11T16:48:31.284Z,4.25
2023-01-11T16:53:33.666Z,3.58
2023-01-11T16:58:37.917Z,4.20
2023-01-11T17:03:53.062Z,4.13
2023-01-11T17:08:56.398Z,4.90
2023-01-11T17:14:09.101Z,4.40
2023-01-11T17:19:20.329Z,3.60
2023-01-11T17:24:26.899Z,2.78
2023-01-11T17:29:40.218Z,3.08
2023-01-11T17:34:41.719Z,3.00
2023-01-11T17:39:50.466Z,3.03
2023-01-11T17:45:11.806Z,3.28
2023-01-11T17:50:28.425Z,3.42
2023-01-11T17:55:29.989Z,3.70
2023-01-11T18:00:31.497Z,4.05
2023-01-11T18:05:32.993Z,3.60
2023-01-11T18:10:36.214Z,3.58
2023-01-11T18:15:37.774Z,4.07
2023-01-11T18:20:39.364Z,3.42
2023-01-11T18:25:41.422Z,3.55
2023-01-11T18:30:47.257Z,3.85
2023-01-11T18:35:50.374Z,3.00
2023-01-11T18:45:53.407Z,3.33
2023-01-11T18:50:55.439Z,3.53
2023-01-11T18:55:56.901Z,3.90
2023-01-11T19:01:00.142Z,3.20
2023-01-11T19:06:01.634Z,3.13
2023-01-11T19:11:03.976Z,4.13
2023-01-11T19:16:06.010Z,4.53
2023-01-11T19:21:09.162Z,3.33
2023-01-11T19:26:10.671Z,3.13
2023-01-11T19:31:12.411Z,4.22
2023-01-11T19:36:13.910Z,4.43
2023-01-11T19:41:16.706Z,2.83
2023-01-11T19:46:30.606Z,3.42
2023-01-11T19:51:33.258Z,2.97
2023-01-11T19:56:34.755Z,3.28
2023-01-11T20:01:36.427Z,3.88
2023-01-11T20:06:49.914Z,3.40
2023-01-11T20:11:53.147Z,2.65
2023-01-11T20:16:54.668Z,4.20
2023-01-11T20:21:56.467Z,3.40
2023-01-11T20:27:00.578Z,3.00
2023-01-11T20:32:21.198Z,3.58
2023-01-11T20:37:23.584Z,3.67
2023-01-11T20:42:25.071Z,3.20
2023-01-11T20:47:26.531Z,3.15
2023-01-11T20:52:28.015Z,3.78
2023-01-11T20:57:29.499Z,3.90
2023-01-11T21:02:31.040Z,4.57
2023-01-11T21:07:32.522Z,3.10
2023-01-11T21:12:33.988Z,3.42
2023-01-11T21:17:35.454Z,3.75
2023-01-11T21:22:36.907Z,3.83
2023-01-11T21:27:38.949Z,4.25
2023-01-11T21:32:40.441Z,3.83
2023-01-11T21:37:41.913Z,3.33
2023-01-11T21:42:43.376Z,3.22
2023-01-11T21:47:44.852Z,4.25
2023-01-11T21:52:46.319Z,3.50
2023-01-11T21:57:47.804Z,4.05
2023-01-11T22:02:49.999Z,2.83
2023-01-11T22:07:51.472Z,3.10
2023-01-11T22:12:53.128Z,3.67
2023-01-11T22:17:54.622Z,2.67
2023-01-11T22:22:56.098Z,3.15
2023-01-11T22:27:57.577Z,3.50
2023-01-11T22:32:59.566Z,3.10
2023-01-11T22:38:01.114Z,3.30
2023-01-11T22:43:02.583Z,4.22
2023-01-11T22:48:04.234Z,3.42
2023-01-11T22:53:05.690Z,2.85
2023-01-11T22:58:07.154Z,2.28
2023-01-11T23:03:08.791Z,2.25
2023-01-11T23:08:10.386Z,2.80
2023-01-11T23:13:30.135Z,1.70
2023-01-11T23:18:31.606Z,2.90
2023-01-11T23:23:33.078Z,3.63
2023-01-11T23:28:34.738Z,3.05
2023-01-11T23:33:37.558Z,3.47
2023-01-11T23:38:39.097Z,3.72
2023-01-11T23:43:40.585Z,3.08
2023-01-11T23:48:42.043Z,3.10
2023-01-11T23:53:43.567Z,3.58
2023-01-11T23:58:45.055Z,3.90
